Aérodrome :
LOGIN :

S'inscrire | Disclaimer

   EN    FR    IT 

 










Légende :    VFR   VFR Marginal   IFR   IFR Intensif   IFR Très Intensif
Visi : 
Plafond : 
>= 8 km
>= 3000ft
5 à 8 km
1000 à 3000 ft
1500m à 5 km
500 à 1000 ft
800 à 1500m
200 à 500 ft
< 800m
< 200 ft
Symboles :   Orages  Brouillard  Fortes neiges  Fortes précipitations  Vent > 20 kt
SIGMETs :   Divers  Orages  Givrage  Turbulence  Onde Orograph.  Cendres Volcan.






- Altitude de l'aérodrome : 220 ft
- Code IATA : CWL


EGFF - Cardiff Rhoose

DERNIER METAR :
  • 121250Z 21006KT 180V240 7000 -RA SCT016 BKN021 09/08 Q0981

METARs EXPIRÉS :
  • 121220Z 20007KT 7000 -RA SCT016 BKN021 09/08 Q0982
  • 121150Z 18007KT 7000 -SHRA BKN018TCU BKN023 BKN036 09/09 Q0982
  • 121120Z AUTO 20007KT 7000 -RA BKN019/// BKN024/// OVC048/// //////TCU 09/08 Q0984
  • 121050Z AUTO 21006KT 190V250 9999 -RA SCT015 BKN030 OVC045 09/09 Q0985 RERA REDZ
  • 121020Z AUTO 17006KT 9999 -RA BKN014/// OVC018/// //////TCU 09/09 Q0986

TAF TAF EGFF
Valide du 12 à 12h jusqu'au 13 à 12h UTC


121100Z 1212/1312 26012KT 9999 FEW015 SCT025
TEMPO 1212/1220 27017G27KT
TEMPO 1212/1214 4000 RADZ BKN009
PROB30
TEMPO 1212/1214 1400 +RADZ
TEMPO 1214/1223 7000 SHRA BKN014
PROB40
TEMPO 1214/1223 3000 +SHRA SHGS BKN009 BKN015CB
BECMG 1220/1223 29020G35KT
PROB30
TEMPO 1223/1312 7000 SHRA
PROB30
TEMPO 1306/1312 29030G45KT
ATIS : +44 1446 729 319



MET'MAP, la Météo Aéronautique d'un coup d'oeil ! - Copyright ORBIFLY Décembre 2007 - Disclaimer

ORBIFLY MET'MAP TEAM :

Programmation & Développement : Alexandra Zaïnal
Sur une idée originale de : Baudouin d'Aumeries
Assistance à la programmation : Marc-Olivier Méhu
Soutien technique & logistique : Manuel Goepfert

Contact : metmap@orbifly.com




SOURCES & CREDITS :

   NOAA